Uasc Ramadi — A8UL3 — position and weather

sailwx.info

Track history (hours):
 
Tides and Currents Weather Stations Pressure Air Temp Water Temp Dewpoint Dewpoint Depression Visibility Wind Speed Wind Dir Waves Ship Positions

Uasc Ramadi

Last reported at 2018-Feb-15 12:00 UTC. Time now 2018-Feb-20 12:02 UTC.
Position N 37°36' W 009°48'.

Length 262 m; draft 10.6 m.

Type: Cargo ship. MMSI: 636017820.

Wind from 180 at 7 knots

Barometer 1026.0 mb
Air temperature 19.5 ° C
Visibility: greater than 10.8 NM
Dewpoint 11.4 ° C
Water temperature 15.0 ° C

Date/timePositionNaut miles runAvg speedWind from/ knotsBaromVisibWave heightAir tempDewpointWater temp
2018-Feb-15 12:00N 37°36' W 009°48'2118.1 180 / 71026.010.8 19.511.415.0
2018-Feb-15 10:50N 37°57' W 009°53'516.2
2018-Feb-15 10:31N 38°02' W 009°55'2618.2
2018-Feb-15 09:06N 38°27' W 010°03'222.4
2018-Feb-15 09:00N 38°29' W 010°03'1122.2
2018-Feb-15 08:30N 38°39' W 010°07'918.2
2018-Feb-15 08:00N 38°48' W 010°06'816.4
2018-Feb-15 07:30N 38°57' W 010°06'816.5
2018-Feb-15 07:00N 39°05' W 010°06'816.3
2018-Feb-15 06:30N 39°13' W 010°06'815.9
2018-Feb-15 06:00N 39°21' W 010°06'68014.9
2018-Feb-13 08:27N 49°42' W 003°39'614.4
2018-Feb-13 08:01N 49°45' W 003°31'713.7
2018-Feb-13 07:30N 49°49' W 003°22'713.1
2018-Feb-13 07:00N 49°52' W 003°13'612.9
2018-Feb-13 06:30N 49°56' W 003°05'612.9
2018-Feb-13 06:00N 49°59' W 002°56'713.3
2018-Feb-13 05:30N 50°01' W 002°46'713.3
2018-Feb-13 05:00N 50°03' W 002°37'2714.4
2018-Feb-13 03:08N 50°10' W 001°56'216.0
2018-Feb-13 03:00N 50°11' W 001°53'816.5
2018-Feb-13 02:30N 50°13' W 001°41'816.8
2018-Feb-13 02:00N 50°16' W 001°28'917.3
2018-Feb-13 01:30N 50°18' W 001°15'917.6
2018-Feb-13 01:00N 50°21' W 001°02'917.7
2018-Feb-13 00:30N 50°23' W 000°49'917.4
2018-Feb-13 00:00N 50°26' W 000°35'817.1
2018-Feb-12 23:31N 50°28' W 000°23'816.8
2018-Feb-12 23:01N 50°31' W 000°10'816.5
2018-Feb-12 22:31N 50°32' E 000°02'816.3
2018-Feb-12 22:00N 50°33' E 000°15'815.8
2018-Feb-12 21:31N 50°35' E 000°27'815.9
2018-Feb-12 21:01N 50°39' E 000°38'816.0
2018-Feb-12 20:31N 50°44' E 000°49'815.8
2018-Feb-12 20:01N 50°48' E 000°59'816.0
2018-Feb-12 19:30N 50°53' E 001°09'816.7
2018-Feb-12 19:00N 50°59' E 001°18'917.7
2018-Feb-12 18:31N 51°05' E 001°28'918.8
2018-Feb-12 18:01N 51°11' E 001°40'918.3
2018-Feb-12 17:31N 51°18' E 001°49'918.1
2018-Feb-12 17:01N 51°26' E 001°57'917.5
2018-Feb-12 16:30N 51°33' E 002°05'917.1
2018-Feb-12 16:00N 51°40' E 002°14'816.8
2018-Feb-12 15:31N 51°46' E 002°23'1116.3
2018-Feb-12 14:50N 51°54' E 002°34'10215.6
2018-Feb-12 08:18N 53°11' E 004°24'15513.6
2018-Feb-11 20:56N 53°58' E 008°33'614.7
2018-Feb-11 20:30N 53°55' E 008°41'611.1
2018-Feb-11 20:00N 53°50' E 008°47'612.5
2018-Feb-11 19:30N 53°51' E 008°58'612.3
2018-Feb-11 19:01N 53°53' E 009°08'4 7.7
2018-Feb-11 18:30N 53°53' E 009°15'713.3
2018-Feb-11 18:00N 53°48' E 009°23'713.4
2018-Feb-11 17:30N 53°43' E 009°29'713.6
2018-Feb-11 17:01N 53°37' E 009°34'612.4
2018-Feb-11 16:30N 53°34' E 009°44'510.5
2018-Feb-11 16:01N 53°33' E 009°52'3 5.9
2018-Feb-11 15:31N 53°32' E 009°57'0 0.0
2018-Feb-11 15:00N 53°32' E 009°57'0 0.0
2018-Feb-11 14:30N 53°32' E 009°57'0 0.0
2018-Feb-11 14:00N 53°32' E 009°57'0 0.0
2018-Feb-11 13:30N 53°32' E 009°57'0 0.0
2018-Feb-11 13:00N 53°32' E 009°57'0 0.0
2018-Feb-11 12:30N 53°32' E 009°57'0 0.0
2018-Feb-11 12:00N 53°32' E 009°57'0 0.0
2018-Feb-11 11:30N 53°32' E 009°57'0 0.0
2018-Feb-11 11:00N 53°32' E 009°57'0 0.0
2018-Feb-11 10:30N 53°32' E 009°57'0 0.0
2018-Feb-11 10:00N 53°32' E 009°57'0 0.0
2018-Feb-11 09:30N 53°32' E 009°57'0 0.0
2018-Feb-11 09:00N 53°32' E 009°57'0 0.0
2018-Feb-11 08:30N 53°32' E 009°57'0 0.0
2018-Feb-11 08:00N 53°32' E 009°57'0 0.0
2018-Feb-11 07:30N 53°32' E 009°57'0 0.0
2018-Feb-11 07:00N 53°32' E 009°57'0 0.0
2018-Feb-11 06:30N 53°32' E 009°57'0 0.0
2018-Feb-11 06:00N 53°32' E 009°57'0 0.0
2018-Feb-11 05:30N 53°32' E 009°57'0 0.0
2018-Feb-11 05:00N 53°32' E 009°57'0 0.0
2018-Feb-11 04:30N 53°32' E 009°57'0 0.0
2018-Feb-11 04:00N 53°32' E 009°57'0 0.0
2018-Feb-11 03:30N 53°32' E 009°57'0 0.0
2018-Feb-11 03:00N 53°32' E 009°57'0 0.0
2018-Feb-11 02:30N 53°32' E 009°57'0 0.0
2018-Feb-11 02:00N 53°32' E 009°57'0 0.0
2018-Feb-11 01:30N 53°32' E 009°57'0 0.0
2018-Feb-11 01:00N 53°32' E 009°57'0 0.0
2018-Feb-11 00:30N 53°32' E 009°57'0 0.0
2018-Feb-11 00:00N 53°32' E 009°57'0 0.0
2018-Feb-10 23:30N 53°32' E 009°57'0 0.0
2018-Feb-10 23:00N 53°32' E 009°57'0 0.0
2018-Feb-10 22:30N 53°32' E 009°57'0 0.0
2018-Feb-10 22:00N 53°32' E 009°57'0 0.0
2018-Feb-10 21:30N 53°32' E 009°57'0 0.0
2018-Feb-10 21:00N 53°32' E 009°57'0 0.0
2018-Feb-10 20:30N 53°32' E 009°57'0 0.0
2018-Feb-10 20:00N 53°32' E 009°57'0 0.0
2018-Feb-10 19:30N 53°32' E 009°57'0 0.0
2018-Feb-10 19:00N 53°32' E 009°57'0 0.0
2018-Feb-10 18:30N 53°32' E 009°57'0 0.0
2018-Feb-10 18:00N 53°32' E 009°57'0 0.0
2018-Feb-10 17:30N 53°32' E 009°57'0 0.0
2018-Feb-10 17:00N 53°32' E 009°57'0 0.0
2018-Feb-10 16:30N 53°32' E 009°57'0 0.0
2018-Feb-10 16:00N 53°32' E 009°57'0 0.0
2018-Feb-10 15:30N 53°32' E 009°57'0 0.0
2018-Feb-10 15:00N 53°32' E 009°57'0 0.0
2018-Feb-10 14:30N 53°32' E 009°57'0 0.0
2018-Feb-10 14:00N 53°32' E 009°57'0 0.0
2018-Feb-10 13:30N 53°32' E 009°57'2 3.7
2018-Feb-10 13:00N 53°32' E 009°54'4 8.4
2018-Feb-10 12:30N 53°33' E 009°47'4 8.3
2018-Feb-10 12:00N 53°34' E 009°40'5 9.4
2018-Feb-10 11:30N 53°37' E 009°34'510.5
2018-Feb-10 11:00N 53°41' E 009°30'611.8
2018-Feb-10 10:30N 53°46' E 009°24'713.9
2018-Feb-10 10:01N 53°52' E 009°17'612.7
2018-Feb-10 09:30N 53°53' E 009°07'612.9
2018-Feb-10 09:00N 53°51' E 008°56'714.3
2018-Feb-10 08:30N 53°52' E 008°44'815.4
2018-Feb-10 08:00N 53°58' E 008°36'816.4
2018-Feb-10 07:30N 53°59' E 008°22'815.4
2018-Feb-10 07:01N 53°60' E 008°09'815.7
2018-Feb-10 06:30N 54°00' E 007°56'1 0.6
2018-Feb-10 04:58N 53°59' E 007°55'4 8.2
2018-Feb-10 04:30N 53°58' E 007°49'11614.6
2018-Feb-09 20:30N 53°24' E 004°41'2214.9
2018-Feb-09 19:00N 53°04' E 004°23'2914.4
2018-Feb-09 17:00N 52°39' E 003°60'714.2
2018-Feb-09 16:30N 52°34' E 003°51'1414.2
2018-Feb-09 15:30N 52°23' E 003°36'6414.2
2018-Feb-09 11:00N 51°52' E 002°05'816.0
2018-Feb-09 10:30N 51°48' E 001°54'713.6
2018-Feb-09 10:00N 51°50' E 001°43'611.1
2018-Feb-09 09:30N 51°52' E 001°34'611.4
2018-Feb-09 09:00N 51°56' E 001°28'7 0.7
2018-Feb-08 23:30N 51°58' E 001°18'11 7.1
2018-Feb-08 22:00N 51°53' E 001°34'5 9.3
2018-Feb-08 21:30N 51°52' E 001°41'10 9.8
2018-Feb-08 20:30N 51°51' E 001°57'6819.3
2018-Feb-08 17:00N 52°03' E 003°45'815.6
2018-Feb-08 16:30N 52°02' E 003°57'612.5
2018-Feb-08 16:00N 51°58' E 004°05'2 0.1
2018-Feb-08 01:28N 51°59' E 004°02'0 0.0
2018-Feb-08 00:58N 51°59' E 004°02'0 0.0
2018-Feb-08 00:28N 51°59' E 004°02'0 0.0
2018-Feb-07 23:58N 51°59' E 004°02'0 1.0
2018-Feb-07 23:31N 51°58' E 004°03'1 2.8
2018-Feb-07 23:01N 51°59' E 004°05'4 8.5
2018-Feb-07 22:30N 52°00' E 003°58'4 8.6
2018-Feb-07 22:00N 51°59' E 003°51'2 3.8
2018-Feb-07 21:31N 51°60' E 003°54'13 1.1
2018-Feb-07 09:29N 51°54' E 003°34'0 0.0
2018-Feb-07 06:35N 51°54' E 003°34'0 0.1
2018-Feb-07 06:23N 51°54' E 003°34'0 0.0
2018-Feb-07 05:35N 51°54' E 003°34'0 0.2
2018-Feb-07 04:35N 51°54' E 003°34'0 0.0
2018-Feb-07 04:29N 51°54' E 003°34'0 0.1
2018-Feb-07 03:56N 51°54' E 003°34'0 0.0
2018-Feb-07 02:56N 51°54' E 003°34'0 0.0
2018-Feb-07 01:20N 51°54' E 003°34'0 0.0
2018-Feb-07 00:53N 51°54' E 003°34'0 0.0
2018-Feb-07 00:11N 51°54' E 003°34'0 0.0
2018-Feb-06 23:41N 51°54' E 003°34'0 0.0
2018-Feb-06 23:29N 51°54' E 003°34'0 0.0
2018-Feb-06 22:56N 51°54' E 003°34'2 1.7
2018-Feb-06 22:00N 51°55' E 003°33'2711.0
2018-Feb-06 19:32N 51°49' E 002°50'112.2
2018-Feb-06 19:28N 51°49' E 002°49'612.5
2018-Feb-06 19:00N 51°47' E 002°40'612.9
2018-Feb-06 18:30N 51°43' E 002°32'713.3
2018-Feb-06 17:58N 51°37' E 002°24'713.3
2018-Feb-06 17:28N 51°32' E 002°17'613.1
2018-Feb-06 17:00N 51°28' E 002°11'612.4
2018-Feb-06 16:30N 51°22' E 002°07'612.7
2018-Feb-06 16:00N 51°16' E 002°05'713.0
2018-Feb-06 15:30N 51°12' E 001°57'612.7
2018-Feb-06 15:00N 51°08' E 001°48'612.7
2018-Feb-06 14:30N 51°04' E 001°41'612.4
2018-Feb-06 14:00N 50°59' E 001°34'611.6
2018-Feb-06 13:30N 50°55' E 001°28'611.0
2018-Feb-06 13:00N 50°50' E 001°25'510.7
2018-Feb-06 12:30N 50°45' E 001°22'610.1
2018-Feb-06 11:57N 50°40' E 001°18'510.8
2018-Feb-06 11:29N 50°37' E 001°11'39 9.8
2018-Feb-06 07:29N 50°21' E 000°15'9 9.4
2018-Feb-06 06:30N 50°19' E 000°01'9 9.3
2018-Feb-06 05:30N 50°16' W 000°13'5 9.2
2018-Feb-06 05:00N 50°15' W 000°20'5 9.2
2018-Feb-06 04:28N 50°14' W 000°28'12 9.9
2018-Feb-06 03:16N 50°11' W 000°46'310.8
2018-Feb-06 03:00N 50°10' W 000°50'611.3
2018-Feb-06 02:30N 50°08' W 000°58'1312.5
2018-Feb-06 01:30N 50°06' W 001°17'713.4
2018-Feb-06 01:00N 50°04' W 001°27'2114.3
2018-Feb-05 23:30N 49°59' W 001°60'714.3
2018-Feb-05 23:00N 49°57' W 002°11'2813.0
2018-Feb-05 20:50N 49°49' W 002°52'1012.0
2018-Feb-05 20:00N 49°44' W 003°06'611.8
2018-Feb-05 19:30N 49°41' W 003°13'  
Track history (hours):
 
Tides and Currents Weather Stations Pressure Air Temp Water Temp Dewpoint Dewpoint Depression Visibility Wind Speed Wind Dir Waves Ship Positions

Uasc Ramadi

Last reported at 2018-Feb-15 12:00 UTC. Time now 2018-Feb-20 12:02 UTC.
Position N 37°36' W 009°48'.

Length 262 m; draft 10.6 m.

Type: Cargo ship. MMSI: 636017820.

Wind from 180 at 7 knots

Barometer 1026.0 mb
Air temperature 19.5 ° C
Visibility: greater than 10.8 NM
Dewpoint 11.4 ° C
Water temperature 15.0 ° C

Date/timePositionNaut miles runAvg speedWind from/ knotsBaromVisibWave heightAir tempDewpointWater temp
2018-Feb-15 12:00N 37°36' W 009°48'2118.1 180 / 71026.010.8 19.511.415.0
2018-Feb-15 10:50N 37°57' W 009°53'516.2
2018-Feb-15 10:31N 38°02' W 009°55'2618.2
2018-Feb-15 09:06N 38°27' W 010°03'222.4
2018-Feb-15 09:00N 38°29' W 010°03'1122.2
2018-Feb-15 08:30N 38°39' W 010°07'918.2
2018-Feb-15 08:00N 38°48' W 010°06'816.4
2018-Feb-15 07:30N 38°57' W 010°06'816.5
2018-Feb-15 07:00N 39°05' W 010°06'816.3
2018-Feb-15 06:30N 39°13' W 010°06'815.9
2018-Feb-15 06:00N 39°21' W 010°06'68014.9
2018-Feb-13 08:27N 49°42' W 003°39'614.4
2018-Feb-13 08:01N 49°45' W 003°31'713.7
2018-Feb-13 07:30N 49°49' W 003°22'713.1
2018-Feb-13 07:00N 49°52' W 003°13'612.9
2018-Feb-13 06:30N 49°56' W 003°05'612.9
2018-Feb-13 06:00N 49°59' W 002°56'713.3
2018-Feb-13 05:30N 50°01' W 002°46'713.3
2018-Feb-13 05:00N 50°03' W 002°37'2714.4
2018-Feb-13 03:08N 50°10' W 001°56'216.0
2018-Feb-13 03:00N 50°11' W 001°53'816.5
2018-Feb-13 02:30N 50°13' W 001°41'816.8
2018-Feb-13 02:00N 50°16' W 001°28'917.3
2018-Feb-13 01:30N 50°18' W 001°15'917.6
2018-Feb-13 01:00N 50°21' W 001°02'917.7
2018-Feb-13 00:30N 50°23' W 000°49'917.4
2018-Feb-13 00:00N 50°26' W 000°35'817.1
2018-Feb-12 23:31N 50°28' W 000°23'816.8
2018-Feb-12 23:01N 50°31' W 000°10'816.5
2018-Feb-12 22:31N 50°32' E 000°02'816.3
2018-Feb-12 22:00N 50°33' E 000°15'815.8
2018-Feb-12 21:31N 50°35' E 000°27'815.9
2018-Feb-12 21:01N 50°39' E 000°38'816.0
2018-Feb-12 20:31N 50°44' E 000°49'815.8
2018-Feb-12 20:01N 50°48' E 000°59'816.0
2018-Feb-12 19:30N 50°53' E 001°09'816.7
2018-Feb-12 19:00N 50°59' E 001°18'917.7
2018-Feb-12 18:31N 51°05' E 001°28'918.8
2018-Feb-12 18:01N 51°11' E 001°40'918.3
2018-Feb-12 17:31N 51°18' E 001°49'918.1
2018-Feb-12 17:01N 51°26' E 001°57'917.5
2018-Feb-12 16:30N 51°33' E 002°05'917.1
2018-Feb-12 16:00N 51°40' E 002°14'816.8
2018-Feb-12 15:31N 51°46' E 002°23'1116.3
2018-Feb-12 14:50N 51°54' E 002°34'10215.6
2018-Feb-12 08:18N 53°11' E 004°24'15513.6
2018-Feb-11 20:56N 53°58' E 008°33'614.7
2018-Feb-11 20:30N 53°55' E 008°41'611.1
2018-Feb-11 20:00N 53°50' E 008°47'612.5
2018-Feb-11 19:30N 53°51' E 008°58'612.3
2018-Feb-11 19:01N 53°53' E 009°08'4 7.7
2018-Feb-11 18:30N 53°53' E 009°15'713.3
2018-Feb-11 18:00N 53°48' E 009°23'713.4
2018-Feb-11 17:30N 53°43' E 009°29'713.6
2018-Feb-11 17:01N 53°37' E 009°34'612.4
2018-Feb-11 16:30N 53°34' E 009°44'510.5
2018-Feb-11 16:01N 53°33' E 009°52'3 5.9
2018-Feb-11 15:31N 53°32' E 009°57'0 0.0
2018-Feb-11 15:00N 53°32' E 009°57'0 0.0
2018-Feb-11 14:30N 53°32' E 009°57'0 0.0
2018-Feb-11 14:00N 53°32' E 009°57'0 0.0
2018-Feb-11 13:30N 53°32' E 009°57'0 0.0
2018-Feb-11 13:00N 53°32' E 009°57'0 0.0
2018-Feb-11 12:30N 53°32' E 009°57'0 0.0
2018-Feb-11 12:00N 53°32' E 009°57'0 0.0
2018-Feb-11 11:30N 53°32' E 009°57'0 0.0
2018-Feb-11 11:00N 53°32' E 009°57'0 0.0
2018-Feb-11 10:30N 53°32' E 009°57'0 0.0
2018-Feb-11 10:00N 53°32' E 009°57'0 0.0
2018-Feb-11 09:30N 53°32' E 009°57'0 0.0
2018-Feb-11 09:00N 53°32' E 009°57'0 0.0
2018-Feb-11 08:30N 53°32' E 009°57'0 0.0
2018-Feb-11 08:00N 53°32' E 009°57'0 0.0
2018-Feb-11 07:30N 53°32' E 009°57'0 0.0
2018-Feb-11 07:00N 53°32' E 009°57'0 0.0
2018-Feb-11 06:30N 53°32' E 009°57'0 0.0
2018-Feb-11 06:00N 53°32' E 009°57'0 0.0
2018-Feb-11 05:30N 53°32' E 009°57'0 0.0
2018-Feb-11 05:00N 53°32' E 009°57'0 0.0
2018-Feb-11 04:30N 53°32' E 009°57'0 0.0
2018-Feb-11 04:00N 53°32' E 009°57'0 0.0
2018-Feb-11 03:30N 53°32' E 009°57'0 0.0
2018-Feb-11 03:00N 53°32' E 009°57'0 0.0
2018-Feb-11 02:30N 53°32' E 009°57'0 0.0
2018-Feb-11 02:00N 53°32' E 009°57'0 0.0
2018-Feb-11 01:30N 53°32' E 009°57'0 0.0
2018-Feb-11 01:00N 53°32' E 009°57'0 0.0
2018-Feb-11 00:30N 53°32' E 009°57'0 0.0
2018-Feb-11 00:00N 53°32' E 009°57'0 0.0
2018-Feb-10 23:30N 53°32' E 009°57'0 0.0
2018-Feb-10 23:00N 53°32' E 009°57'0 0.0
2018-Feb-10 22:30N 53°32' E 009°57'0 0.0
2018-Feb-10 22:00N 53°32' E 009°57'0 0.0
2018-Feb-10 21:30N 53°32' E 009°57'0 0.0
2018-Feb-10 21:00N 53°32' E 009°57'0 0.0
2018-Feb-10 20:30N 53°32' E 009°57'0 0.0
2018-Feb-10 20:00N 53°32' E 009°57'0 0.0
2018-Feb-10 19:30N 53°32' E 009°57'0 0.0
2018-Feb-10 19:00N 53°32' E 009°57'0 0.0
2018-Feb-10 18:30N 53°32' E 009°57'0 0.0
2018-Feb-10 18:00N 53°32' E 009°57'0 0.0
2018-Feb-10 17:30N 53°32' E 009°57'0 0.0
2018-Feb-10 17:00N 53°32' E 009°57'0 0.0
2018-Feb-10 16:30N 53°32' E 009°57'0 0.0
2018-Feb-10 16:00N 53°32' E 009°57'0 0.0
2018-Feb-10 15:30N 53°32' E 009°57'0 0.0
2018-Feb-10 15:00N 53°32' E 009°57'0 0.0
2018-Feb-10 14:30N 53°32' E 009°57'0 0.0
2018-Feb-10 14:00N 53°32' E 009°57'0 0.0
2018-Feb-10 13:30N 53°32' E 009°57'2 3.7
2018-Feb-10 13:00N 53°32' E 009°54'4 8.4
2018-Feb-10 12:30N 53°33' E 009°47'4 8.3
2018-Feb-10 12:00N 53°34' E 009°40'5 9.4
2018-Feb-10 11:30N 53°37' E 009°34'510.5
2018-Feb-10 11:00N 53°41' E 009°30'611.8
2018-Feb-10 10:30N 53°46' E 009°24'713.9
2018-Feb-10 10:01N 53°52' E 009°17'612.7
2018-Feb-10 09:30N 53°53' E 009°07'612.9
2018-Feb-10 09:00N 53°51' E 008°56'714.3
2018-Feb-10 08:30N 53°52' E 008°44'815.4
2018-Feb-10 08:00N 53°58' E 008°36'816.4
2018-Feb-10 07:30N 53°59' E 008°22'815.4
2018-Feb-10 07:01N 53°60' E 008°09'815.7
2018-Feb-10 06:30N 54°00' E 007°56'1 0.6
2018-Feb-10 04:58N 53°59' E 007°55'4 8.2
2018-Feb-10 04:30N 53°58' E 007°49'11614.6
2018-Feb-09 20:30N 53°24' E 004°41'2214.9
2018-Feb-09 19:00N 53°04' E 004°23'2914.4
2018-Feb-09 17:00N 52°39' E 003°60'714.2
2018-Feb-09 16:30N 52°34' E 003°51'1414.2
2018-Feb-09 15:30N 52°23' E 003°36'6414.2
2018-Feb-09 11:00N 51°52' E 002°05'816.0
2018-Feb-09 10:30N 51°48' E 001°54'713.6
2018-Feb-09 10:00N 51°50' E 001°43'611.1
2018-Feb-09 09:30N 51°52' E 001°34'611.4
2018-Feb-09 09:00N 51°56' E 001°28'7 0.7
2018-Feb-08 23:30N 51°58' E 001°18'11 7.1
2018-Feb-08 22:00N 51°53' E 001°34'5 9.3
2018-Feb-08 21:30N 51°52' E 001°41'10 9.8
2018-Feb-08 20:30N 51°51' E 001°57'6819.3
2018-Feb-08 17:00N 52°03' E 003°45'815.6
2018-Feb-08 16:30N 52°02' E 003°57'612.5
2018-Feb-08 16:00N 51°58' E 004°05'2 0.1
2018-Feb-08 01:28N 51°59' E 004°02'0 0.0
2018-Feb-08 00:58N 51°59' E 004°02'0 0.0
2018-Feb-08 00:28N 51°59' E 004°02'0 0.0
2018-Feb-07 23:58N 51°59' E 004°02'0 1.0
2018-Feb-07 23:31N 51°58' E 004°03'1 2.8
2018-Feb-07 23:01N 51°59' E 004°05'4 8.5
2018-Feb-07 22:30N 52°00' E 003°58'4 8.6
2018-Feb-07 22:00N 51°59' E 003°51'2 3.8
2018-Feb-07 21:31N 51°60' E 003°54'13 1.1
2018-Feb-07 09:29N 51°54' E 003°34'0 0.0
2018-Feb-07 06:35N 51°54' E 003°34'0 0.1
2018-Feb-07 06:23N 51°54' E 003°34'0 0.0
2018-Feb-07 05:35N 51°54' E 003°34'0 0.2
2018-Feb-07 04:35N 51°54' E 003°34'0 0.0
2018-Feb-07 04:29N 51°54' E 003°34'0 0.1
2018-Feb-07 03:56N 51°54' E 003°34'0 0.0
2018-Feb-07 02:56N 51°54' E 003°34'0 0.0
2018-Feb-07 01:20N 51°54' E 003°34'0 0.0
2018-Feb-07 00:53N 51°54' E 003°34'0 0.0
2018-Feb-07 00:11N 51°54' E 003°34'0 0.0
2018-Feb-06 23:41N 51°54' E 003°34'0 0.0
2018-Feb-06 23:29N 51°54' E 003°34'0 0.0
2018-Feb-06 22:56N 51°54' E 003°34'2 1.7
2018-Feb-06 22:00N 51°55' E 003°33'2711.0
2018-Feb-06 19:32N 51°49' E 002°50'112.2
2018-Feb-06 19:28N 51°49' E 002°49'612.5
2018-Feb-06 19:00N 51°47' E 002°40'612.9
2018-Feb-06 18:30N 51°43' E 002°32'713.3
2018-Feb-06 17:58N 51°37' E 002°24'713.3
2018-Feb-06 17:28N 51°32' E 002°17'613.1
2018-Feb-06 17:00N 51°28' E 002°11'612.4
2018-Feb-06 16:30N 51°22' E 002°07'612.7
2018-Feb-06 16:00N 51°16' E 002°05'713.0
2018-Feb-06 15:30N 51°12' E 001°57'612.7
2018-Feb-06 15:00N 51°08' E 001°48'612.7
2018-Feb-06 14:30N 51°04' E 001°41'612.4
2018-Feb-06 14:00N 50°59' E 001°34'611.6
2018-Feb-06 13:30N 50°55' E 001°28'611.0
2018-Feb-06 13:00N 50°50' E 001°25'510.7
2018-Feb-06 12:30N 50°45' E 001°22'610.1
2018-Feb-06 11:57N 50°40' E 001°18'510.8
2018-Feb-06 11:29N 50°37' E 001°11'39 9.8
2018-Feb-06 07:29N 50°21' E 000°15'9 9.4
2018-Feb-06 06:30N 50°19' E 000°01'9 9.3
2018-Feb-06 05:30N 50°16' W 000°13'5 9.2
2018-Feb-06 05:00N 50°15' W 000°20'5 9.2
2018-Feb-06 04:28N 50°14' W 000°28'12 9.9
2018-Feb-06 03:16N 50°11' W 000°46'310.8
2018-Feb-06 03:00N 50°10' W 000°50'611.3
2018-Feb-06 02:30N 50°08' W 000°58'1312.5
2018-Feb-06 01:30N 50°06' W 001°17'713.4
2018-Feb-06 01:00N 50°04' W 001°27'2114.3
2018-Feb-05 23:30N 49°59' W 001°60'714.3
2018-Feb-05 23:00N 49°57' W 002°11'2813.0
2018-Feb-05 20:50N 49°49' W 002°52'1012.0
2018-Feb-05 20:00N 49°44' W 003°06'611.8
2018-Feb-05 19:30N 49°41' W 003°13'  

Dump ship's entire track history